createdAt,value
2023-04-07T00:01:30.078Z,9.98
2023-04-07T00:03:58.280Z,9.96
2023-04-07T00:06:27.440Z,9.96
2023-04-07T00:08:55.260Z,9.96
2023-04-07T00:11:23.027Z,9.95
2023-04-07T00:13:50.817Z,9.96
2023-04-07T00:16:20.117Z,9.93
2023-04-07T00:18:48.016Z,9.92
2023-04-07T00:21:15.815Z,9.90
2023-04-07T00:23:43.727Z,9.95
2023-04-07T00:26:11.485Z,9.96
2023-04-07T00:28:39.195Z,9.97
2023-04-07T00:31:07.063Z,9.98
2023-04-07T00:33:36.382Z,9.99
2023-04-07T00:36:04.141Z,9.97
2023-04-07T00:38:31.868Z,9.99
2023-04-07T00:41:00.341Z,10.00
2023-04-07T00:43:28.089Z,10.03
2023-04-07T00:45:56.044Z,10.05
2023-04-07T00:48:24.104Z,10.05
2023-04-07T00:50:53.325Z,10.08
2023-04-07T00:53:21.301Z,10.09
2023-04-07T00:55:49.375Z,10.10
2023-04-07T00:58:17.140Z,10.09
2023-04-07T01:00:50.788Z,10.11
2023-04-07T01:03:22.394Z,10.12
2023-04-07T01:05:57.069Z,10.08
2023-04-07T01:08:31.835Z,10.04
2023-04-07T01:11:06.932Z,10.00
2023-04-07T01:13:39.797Z,9.99
2023-04-07T01:16:12.790Z,10.00
2023-04-07T01:18:41.521Z,10.02
2023-04-07T01:21:15.396Z,10.02
2023-04-07T01:23:57.156Z,10.01
2023-04-07T01:26:29.106Z,10.00
2023-04-07T01:29:16.940Z,9.98
2023-04-07T01:31:49.659Z,10.02
2023-04-07T01:34:19.565Z,10.07
2023-04-07T01:36:48.412Z,10.07
2023-04-07T01:39:17.347Z,10.06
2023-04-07T01:41:46.150Z,10.01
2023-04-07T01:44:14.992Z,10.06
2023-04-07T01:46:42.874Z,10.09
2023-04-07T01:49:13.604Z,10.09
2023-04-07T01:51:42.591Z,10.10
2023-04-07T01:54:10.878Z,10.13
2023-04-07T01:56:38.563Z,10.13
2023-04-07T01:59:06.252Z,10.16
2023-04-07T02:01:34.086Z,10.18
2023-04-07T02:04:09.755Z,10.13
2023-04-07T02:06:44.479Z,10.12
2023-04-07T02:09:14.438Z,10.12
2023-04-07T02:11:45.100Z,10.12
2023-04-07T02:14:14.564Z,10.08
2023-04-07T02:16:45.212Z,10.10
2023-04-07T02:19:14.699Z,10.04
2023-04-07T02:21:46.717Z,10.02
2023-04-07T02:24:14.479Z,10.05
2023-04-07T02:26:44.096Z,10.05
2023-04-07T02:29:11.869Z,10.08
2023-04-07T02:31:39.568Z,10.10
2023-04-07T02:34:07.414Z,10.08
2023-04-07T02:36:35.645Z,10.09
2023-04-07T02:39:05.461Z,10.11
2023-04-07T02:41:33.137Z,10.13
2023-04-07T02:44:00.909Z,10.14
2023-04-07T02:46:28.661Z,10.12
2023-04-07T02:48:56.389Z,10.14
2023-04-07T02:51:24.099Z,10.17
2023-04-07T02:53:51.832Z,10.19
2023-04-07T02:56:20.954Z,10.20
2023-04-07T02:58:48.651Z,10.18
2023-04-07T03:01:16.452Z,10.12
2023-04-07T03:03:45.311Z,10.10
2023-04-07T03:06:13.573Z,10.04
2023-04-07T03:08:42.221Z,10.06
2023-04-07T03:11:09.930Z,10.04
2023-04-07T03:13:38.995Z,10.04
2023-04-07T03:16:06.801Z,9.98
2023-04-07T03:18:34.544Z,9.99
2023-04-07T03:21:02.227Z,9.98
2023-04-07T03:23:30.284Z,9.99
2023-04-07T03:25:58.743Z,10.01
2023-04-07T03:28:26.549Z,10.02
2023-04-07T03:30:55.724Z,10.04
2023-04-07T03:33:23.473Z,10.00
2023-04-07T03:35:51.181Z,10.00
2023-04-07T03:38:18.938Z,9.96
2023-04-07T03:40:46.654Z,9.94
2023-04-07T03:43:15.751Z,9.96
2023-04-07T03:45:43.821Z,10.00
2023-04-07T03:48:12.891Z,9.92
2023-04-07T03:50:41.287Z,9.93
2023-04-07T03:53:09.412Z,9.90
2023-04-07T03:55:39.804Z,9.95
2023-04-07T03:58:07.739Z,9.92
2023-04-07T04:00:35.649Z,9.86
2023-04-07T04:03:03.729Z,9.81
2023-04-07T04:05:32.968Z,9.86
2023-04-07T04:08:00.733Z,9.85
2023-04-07T04:10:28.443Z,9.92
2023-04-07T04:12:56.740Z,9.97
2023-04-07T04:15:24.621Z,9.96
2023-04-07T04:17:52.388Z,9.94
2023-04-07T04:20:22.141Z,9.91
2023-04-07T04:22:51.325Z,9.85
2023-04-07T04:25:19.423Z,9.84
2023-04-07T04:27:47.238Z,9.83
2023-04-07T04:30:15.215Z,9.83
2023-04-07T04:32:42.980Z,9.86
2023-04-07T04:35:11.189Z,9.89
2023-04-07T04:37:38.942Z,9.89
2023-04-07T04:40:09.476Z,9.87
2023-04-07T04:42:37.512Z,9.89
2023-04-07T04:45:06.658Z,9.84
2023-04-07T04:47:34.335Z,9.84
2023-04-07T04:50:02.405Z,9.86
2023-04-07T04:52:30.109Z,9.89
2023-04-07T04:54:57.886Z,9.87
2023-04-07T04:57:27.042Z,9.84
2023-04-07T04:59:54.743Z,9.78
2023-04-07T05:02:22.608Z,9.78
2023-04-07T05:04:50.998Z,9.74
2023-04-07T05:07:18.766Z,9.78
2023-04-07T05:09:46.426Z,9.84
2023-04-07T05:12:14.089Z,9.82
2023-04-07T05:14:43.133Z,9.81
2023-04-07T05:17:10.818Z,9.81
2023-04-07T05:19:38.521Z,9.76
2023-04-07T05:22:06.254Z,9.82
2023-04-07T05:24:35.885Z,9.83
2023-04-07T05:27:12.877Z,9.87
2023-04-07T05:29:40.729Z,9.86
2023-04-07T05:32:09.913Z,9.89
2023-04-07T05:34:41.216Z,9.85
2023-04-07T05:37:09.027Z,9.89
2023-04-07T05:39:41.516Z,9.91
2023-04-07T05:42:09.194Z,9.88
2023-04-07T05:44:40.066Z,9.89
2023-04-07T05:47:12.847Z,9.84
2023-04-07T05:49:48.942Z,9.82
2023-04-07T05:52:16.711Z,9.83
2023-04-07T05:54:44.572Z,9.89
2023-04-07T05:57:12.306Z,9.93
2023-04-07T05:59:40.181Z,9.96
2023-04-07T06:02:09.487Z,10.03
2023-04-07T06:04:39.476Z,9.94
2023-04-07T06:07:07.409Z,9.97
2023-04-07T06:09:35.632Z,10.00
2023-04-07T06:12:05.252Z,9.97
2023-04-07T06:14:33.133Z,10.00
2023-04-07T06:17:01.283Z,9.99
2023-04-07T06:19:30.920Z,10.04
2023-04-07T06:21:58.770Z,10.10
2023-04-07T06:24:27.163Z,10.14
2023-04-07T06:26:56.326Z,10.15
2023-04-07T06:29:24.169Z,10.18
2023-04-07T06:31:51.898Z,10.15
2023-04-07T06:34:19.693Z,10.17
2023-04-07T06:36:49.864Z,10.21
2023-04-07T06:39:17.776Z,10.19
2023-04-07T06:41:46.960Z,10.21
2023-04-07T06:44:14.812Z,10.24
2023-04-07T06:46:43.161Z,10.23
2023-04-07T06:49:12.083Z,10.24
2023-04-07T06:51:39.866Z,10.19
2023-04-07T06:54:13.766Z,10.22
2023-04-07T06:56:41.987Z,10.25
2023-04-07T06:59:10.154Z,10.27
2023-04-07T07:01:40.066Z,10.30
2023-04-07T07:04:08.438Z,10.35
2023-04-07T07:06:36.718Z,10.36
2023-04-07T07:09:04.721Z,10.42
2023-04-07T07:11:33.960Z,10.43
2023-04-07T07:14:01.803Z,10.49
2023-04-07T07:16:29.583Z,10.50
2023-04-07T07:18:57.373Z,10.52
2023-04-07T07:21:26.680Z,10.54
2023-04-07T07:23:54.649Z,10.58
2023-04-07T07:26:22.482Z,10.55
2023-04-07T07:28:51.679Z,10.59
2023-04-07T07:31:19.581Z,10.58
2023-04-07T07:33:49.206Z,10.68
2023-04-07T07:36:17.187Z,10.76
2023-04-07T07:38:44.992Z,10.81
2023-04-07T07:41:12.806Z,10.77
2023-04-07T07:43:41.114Z,10.80
2023-04-07T07:46:13.648Z,10.81
2023-04-07T07:48:41.670Z,10.83
2023-04-07T07:51:09.754Z,10.80
2023-04-07T07:53:38.059Z,10.78
2023-04-07T07:56:06.095Z,10.79
2023-04-07T07:58:34.064Z,10.68
2023-04-07T08:01:02.257Z,10.62
2023-04-07T08:03:32.086Z,10.64
2023-04-07T08:06:00.011Z,10.66
2023-04-07T08:08:27.971Z,10.67
2023-04-07T08:10:55.917Z,10.67
2023-04-07T08:13:24.026Z,10.60
2023-04-07T08:15:53.415Z,10.53
2023-04-07T08:18:23.083Z,10.50
2023-04-07T08:20:52.816Z,10.55
2023-04-07T08:23:21.102Z,10.54
2023-04-07T08:25:48.856Z,10.64
2023-04-07T08:28:17.006Z,10.70
2023-04-07T08:30:44.969Z,10.66
2023-04-07T08:33:12.828Z,10.64
2023-04-07T08:35:43.627Z,10.65
2023-04-07T08:38:12.837Z,10.65
2023-04-07T08:40:40.784Z,10.67
2023-04-07T08:43:11.039Z,10.65
2023-04-07T08:45:42.165Z,10.64
2023-04-07T08:48:17.791Z,10.56
2023-04-07T08:50:46.888Z,10.55
2023-04-07T08:53:20.482Z,10.54
2023-04-07T08:55:48.297Z,10.54
2023-04-07T08:58:17.747Z,10.52
2023-04-07T09:00:49.158Z,10.51
2023-04-07T09:03:17.916Z,10.51
2023-04-07T09:05:46.462Z,10.61
2023-04-07T09:08:14.276Z,10.67
2023-04-07T09:10:43.638Z,10.62
2023-04-07T09:13:11.525Z,10.55
2023-04-07T09:15:40.188Z,10.47
2023-04-07T09:18:08.228Z,10.51
2023-04-07T09:20:59.457Z,10.56
2023-04-07T09:23:32.323Z,10.62
2023-04-07T09:26:02.813Z,10.64
2023-04-07T09:28:42.506Z,10.79
2023-04-07T09:31:10.554Z,10.90
2023-04-07T09:33:38.772Z,11.02
2023-04-07T09:36:08.029Z,11.10
2023-04-07T09:38:37.121Z,11.06
2023-04-07T09:41:10.642Z,11.05
2023-04-07T09:43:40.630Z,10.97
2023-04-07T09:46:12.796Z,11.00
2023-04-07T09:48:41.124Z,11.11
2023-04-07T09:51:11.779Z,11.02
2023-04-07T09:53:47.927Z,10.95
2023-04-07T09:56:19.293Z,10.98
2023-04-07T09:58:48.429Z,10.99
2023-04-07T10:01:18.150Z,11.05
2023-04-07T10:03:47.894Z,11.11
2023-04-07T10:06:16.863Z,11.13
2023-04-07T10:08:45.099Z,11.32
2023-04-07T10:11:12.913Z,11.48
2023-04-07T10:13:42.631Z,11.59
2023-04-07T10:16:11.252Z,11.66
2023-04-07T10:18:40.371Z,11.67
2023-04-07T10:21:16.306Z,11.55
2023-04-07T10:23:53.068Z,11.34
2023-04-07T10:26:26.721Z,11.39
2023-04-07T10:29:03.934Z,11.43
2023-04-07T10:31:32.649Z,11.41
2023-04-07T10:34:03.948Z,11.38
2023-04-07T10:36:31.852Z,11.38
2023-04-07T10:39:25.602Z,11.42
2023-04-07T10:41:53.424Z,11.51
2023-04-07T10:44:53.110Z,11.54
2023-04-07T10:47:20.950Z,11.49
2023-04-07T10:50:16.635Z,11.63
2023-04-07T10:52:44.943Z,11.72
2023-04-07T10:55:33.817Z,11.86
2023-04-07T10:58:22.743Z,12.00
2023-04-07T11:01:22.013Z,12.06
2023-04-07T11:04:02.315Z,12.25
2023-04-07T11:06:31.509Z,12.31
2023-04-07T11:08:59.469Z,12.05
2023-04-07T11:11:40.227Z,12.02
2023-04-07T11:14:08.263Z,12.05
2023-04-07T11:16:39.581Z,12.05
2023-04-07T11:19:07.652Z,12.11
2023-04-07T11:21:36.706Z,12.15
2023-04-07T11:24:05.297Z,12.22
2023-04-07T11:26:40.219Z,12.21
2023-04-07T11:29:08.091Z,12.13
2023-04-07T11:31:36.069Z,12.11
2023-04-07T11:34:06.332Z,12.20
2023-04-07T11:36:35.827Z,12.20
2023-04-07T11:39:04.598Z,12.20
2023-04-07T11:41:33.836Z,12.25
2023-04-07T11:44:09.027Z,12.32
2023-04-07T11:46:37.319Z,12.26
2023-04-07T11:49:14.047Z,12.15
2023-04-07T11:51:44.231Z,12.18
2023-04-07T11:54:12.169Z,12.22
2023-04-07T11:56:45.331Z,12.24
2023-04-07T11:59:22.840Z,12.19
2023-04-07T12:01:52.357Z,12.04
2023-04-07T12:04:23.028Z,11.93
2023-04-07T12:06:51.659Z,11.82
2023-04-07T12:09:30.874Z,11.78
2023-04-07T12:11:59.852Z,11.71
2023-04-07T12:14:29.160Z,11.72
2023-04-07T12:16:58.290Z,11.78
2023-04-07T12:19:30.036Z,11.74
2023-04-07T12:21:58.300Z,11.91
2023-04-07T12:24:27.116Z,12.03
2023-04-07T12:26:55.038Z,12.03
2023-04-07T12:29:23.089Z,12.01
2023-04-07T12:31:51.437Z,12.04
2023-04-07T12:34:19.851Z,12.06
2023-04-07T12:36:55.261Z,12.24
2023-04-07T12:39:26.282Z,12.40
2023-04-07T12:41:54.131Z,12.47
2023-04-07T12:44:21.957Z,12.51
2023-04-07T12:46:49.776Z,12.47
2023-04-07T12:49:17.728Z,12.39
2023-04-07T12:51:46.037Z,12.41
2023-04-07T12:54:15.489Z,12.41
2023-04-07T12:56:43.668Z,12.43
2023-04-07T12:59:11.602Z,12.48
2023-04-07T13:01:42.522Z,12.55
2023-04-07T13:04:11.097Z,12.68
2023-04-07T13:06:39.133Z,12.67
2023-04-07T13:09:09.983Z,12.65
2023-04-07T13:11:39.225Z,12.64
2023-04-07T13:14:07.678Z,12.60
2023-04-07T13:16:36.060Z,12.68
2023-04-07T13:19:04.064Z,12.77
2023-04-07T13:21:43.742Z,12.82
2023-04-07T13:24:13.771Z,12.87
2023-04-07T13:26:42.898Z,12.97
2023-04-07T13:29:10.707Z,13.07
2023-04-07T13:31:38.513Z,13.11
2023-04-07T13:34:06.250Z,13.13
2023-04-07T13:36:34.102Z,13.04
2023-04-07T13:39:02.259Z,12.93
2023-04-07T13:41:30.021Z,12.82
2023-04-07T13:43:59.520Z,12.77
2023-04-07T13:46:28.933Z,12.61
2023-04-07T13:48:57.201Z,12.49
2023-04-07T13:51:25.044Z,12.44
2023-04-07T13:53:52.792Z,12.36
2023-04-07T13:56:22.221Z,12.23
2023-04-07T13:58:50.398Z,12.10
2023-04-07T14:01:40.648Z,12.08
2023-04-07T14:04:08.834Z,12.13
2023-04-07T14:06:38.035Z,12.04
2023-04-07T14:09:06.500Z,12.02
2023-04-07T14:11:35.757Z,11.87
2023-04-07T14:14:03.772Z,11.77
2023-04-07T14:16:33.208Z,11.71
2023-04-07T14:19:01.057Z,11.77
2023-04-07T14:21:28.890Z,11.74
2023-04-07T14:23:56.899Z,11.64
2023-04-07T14:26:24.761Z,11.50
2023-04-07T14:28:52.584Z,11.51
2023-04-07T14:31:20.976Z,11.50
2023-04-07T14:33:51.232Z,11.50
2023-04-07T14:36:19.266Z,11.48
2023-04-07T14:38:47.031Z,11.45
2023-04-07T14:41:14.818Z,11.34
2023-04-07T14:43:42.686Z,11.27
2023-04-07T14:46:10.478Z,11.21
2023-04-07T14:48:39.110Z,11.24
2023-04-07T14:51:13.821Z,11.30
2023-04-07T14:53:43.524Z,11.28
2023-04-07T14:56:11.434Z,11.14
2023-04-07T14:58:40.626Z,11.20
2023-04-07T15:01:11.264Z,11.30
2023-04-07T15:03:40.855Z,11.32
2023-04-07T15:06:10.051Z,11.40
2023-04-07T15:08:39.515Z,11.52
2023-04-07T15:11:10.542Z,11.55
2023-04-07T15:14:06.556Z,11.60
2023-04-07T15:16:36.195Z,11.55
2023-04-07T15:19:05.514Z,11.56
2023-04-07T15:21:33.483Z,11.58
2023-04-07T15:24:02.973Z,11.66
2023-04-07T15:26:31.007Z,11.74
2023-04-07T15:28:58.894Z,11.82
2023-04-07T15:31:28.594Z,11.93
2023-04-07T15:33:56.694Z,11.88
2023-04-07T15:36:26.145Z,11.84
2023-04-07T15:39:00.163Z,11.88
2023-04-07T15:41:29.417Z,11.83
2023-04-07T15:44:01.224Z,11.71
2023-04-07T15:46:33.565Z,11.75
2023-04-07T15:49:03.506Z,11.74
2023-04-07T15:51:31.451Z,11.67
2023-04-07T15:54:08.167Z,11.65
2023-04-07T15:56:47.460Z,11.59
2023-04-07T15:59:16.229Z,11.57
2023-04-07T16:01:46.700Z,11.55
2023-04-07T16:04:17.271Z,11.50
2023-04-07T16:06:54.465Z,11.47
2023-04-07T16:09:22.501Z,11.44
2023-04-07T16:11:51.647Z,11.46
2023-04-07T16:14:19.364Z,11.49
2023-04-07T16:16:47.316Z,11.47
2023-04-07T16:19:15.430Z,11.50
2023-04-07T16:21:43.162Z,11.53
2023-04-07T16:24:13.686Z,11.51
2023-04-07T16:26:41.601Z,11.54
2023-04-07T16:29:11.274Z,11.59
2023-04-07T16:31:39.571Z,11.64
2023-04-07T16:34:07.545Z,11.69
2023-04-07T16:36:35.754Z,11.75
2023-04-07T16:39:06.225Z,11.75
2023-04-07T16:41:34.118Z,11.74
2023-04-07T16:44:02.007Z,11.68
2023-04-07T16:46:31.451Z,11.71
2023-04-07T16:48:59.837Z,11.78
2023-04-07T16:51:28.508Z,11.82
2023-04-07T16:53:56.412Z,11.81
2023-04-07T16:56:26.019Z,11.75
2023-04-07T16:58:56.528Z,11.72
2023-04-07T17:01:24.339Z,11.66
2023-04-07T17:03:53.944Z,11.57
2023-04-07T17:06:21.989Z,11.57
2023-04-07T17:08:49.905Z,11.52
2023-04-07T17:11:19.594Z,11.50
2023-04-07T17:13:47.888Z,11.47
2023-04-07T17:16:16.337Z,11.45
2023-04-07T17:18:44.138Z,11.48
2023-04-07T17:21:13.586Z,11.49
2023-04-07T17:23:41.335Z,11.46
2023-04-07T17:26:09.198Z,11.48
2023-04-07T17:28:37.045Z,11.50
2023-04-07T17:31:04.997Z,11.52
2023-04-07T17:33:35.980Z,11.49
2023-04-07T17:36:04.033Z,11.49
2023-04-07T17:38:33.651Z,11.50
2023-04-07T17:41:02.931Z,11.49
2023-04-07T17:43:31.771Z,11.49
2023-04-07T17:45:59.665Z,11.46
2023-04-07T17:48:27.653Z,11.42
2023-04-07T17:50:56.300Z,11.39
2023-04-07T17:53:24.098Z,11.42
2023-04-07T17:55:53.250Z,11.44
2023-04-07T17:58:21.260Z,11.40
2023-04-07T18:00:50.544Z,11.35
2023-04-07T18:03:19.547Z,11.33
2023-04-07T18:05:49.103Z,11.34
2023-04-07T18:08:17.107Z,11.38
2023-04-07T18:10:44.962Z,11.41
2023-04-07T18:13:21.345Z,11.43
2023-04-07T18:15:49.146Z,11.40
2023-04-07T18:18:17.296Z,11.31
2023-04-07T18:20:45.151Z,11.24
2023-04-07T18:23:13.625Z,11.24
2023-04-07T18:25:41.696Z,11.19
2023-04-07T18:28:11.997Z,11.19
2023-04-07T18:30:42.106Z,11.20
2023-04-07T18:33:10.131Z,11.12
2023-04-07T18:35:38.067Z,11.12
2023-04-07T18:38:06.424Z,11.10
2023-04-07T18:40:35.469Z,11.03
2023-04-07T18:43:05.945Z,10.99
2023-04-07T18:45:36.832Z,10.99
2023-04-07T18:48:06.481Z,10.98
2023-04-07T18:50:34.349Z,11.02
2023-04-07T18:53:02.182Z,11.03
2023-04-07T18:55:29.918Z,11.01
2023-04-07T18:57:57.808Z,11.04
2023-04-07T19:00:25.571Z,11.02
2023-04-07T19:02:53.446Z,11.01
2023-04-07T19:05:25.578Z,11.02
2023-04-07T19:07:53.735Z,11.03
2023-04-07T19:10:21.713Z,11.02
2023-04-07T19:12:49.480Z,11.00
2023-04-07T19:15:17.301Z,10.96
2023-04-07T19:17:45.394Z,10.91
2023-04-07T19:20:13.109Z,10.87
2023-04-07T19:22:42.201Z,10.84
2023-04-07T19:25:10.613Z,10.80
2023-04-07T19:27:39.500Z,10.82
2023-04-07T19:30:08.611Z,10.86
2023-04-07T19:32:36.763Z,10.89
2023-04-07T19:35:04.767Z,10.90
2023-04-07T19:37:32.508Z,10.90
2023-04-07T19:40:03.261Z,10.86
2023-04-07T19:42:31.481Z,10.90
2023-04-07T19:45:02.303Z,10.89
2023-04-07T19:47:30.529Z,10.89
2023-04-07T19:49:58.869Z,10.88
2023-04-07T19:52:26.682Z,10.85
2023-04-07T19:54:54.409Z,10.86
2023-04-07T19:57:23.718Z,10.81
2023-04-07T19:59:51.771Z,10.85
2023-04-07T20:02:19.676Z,10.87
2023-04-07T20:04:47.380Z,10.87
2023-04-07T20:07:15.562Z,10.84
2023-04-07T20:09:43.331Z,10.84
2023-04-07T20:12:11.163Z,10.78
2023-04-07T20:14:40.421Z,10.81
2023-04-07T20:17:08.596Z,10.85
2023-04-07T20:19:36.735Z,10.89
2023-04-07T20:22:04.565Z,10.89
2023-04-07T20:24:32.348Z,10.89
2023-04-07T20:27:00.114Z,10.88
2023-04-07T20:29:27.905Z,10.88
2023-04-07T20:31:57.026Z,10.90
2023-04-07T20:34:24.755Z,10.90
2023-04-07T20:36:52.600Z,10.85
2023-04-07T20:39:20.532Z,10.84
2023-04-07T20:41:48.293Z,10.80
2023-04-07T20:44:16.272Z,10.76
2023-04-07T20:46:45.139Z,10.76
2023-04-07T20:49:14.738Z,10.78
2023-04-07T20:51:42.558Z,10.76
2023-04-07T20:54:10.398Z,10.73
2023-04-07T20:56:38.402Z,10.68
2023-04-07T20:59:06.258Z,10.68
2023-04-07T21:01:34.179Z,10.67
2023-04-07T21:04:02.921Z,10.66
2023-04-07T21:06:32.742Z,10.64
2023-04-07T21:09:01.283Z,10.53
2023-04-07T21:11:29.147Z,10.52
2023-04-07T21:13:56.882Z,10.53
2023-04-07T21:16:24.831Z,10.51
2023-04-07T21:18:52.833Z,10.52
2023-04-07T21:21:20.737Z,10.45
2023-04-07T21:23:50.002Z,10.35
2023-04-07T21:26:17.888Z,10.33
2023-04-07T21:28:45.706Z,10.30
2023-04-07T21:31:21.662Z,10.31
2023-04-07T21:33:49.976Z,10.31
2023-04-07T21:36:17.779Z,10.27
2023-04-07T21:38:45.814Z,10.29
2023-04-07T21:41:15.467Z,10.34
2023-04-07T21:43:43.244Z,10.35
2023-04-07T21:46:11.456Z,10.36
2023-04-07T21:48:39.247Z,10.36
2023-04-07T21:51:08.052Z,10.29
2023-04-07T21:53:36.691Z,10.22
2023-04-07T21:56:04.677Z,10.14
2023-04-07T21:58:33.915Z,10.13
2023-04-07T22:01:01.895Z,10.09
2023-04-07T22:03:30.582Z,10.04
2023-04-07T22:05:59.289Z,9.99
2023-04-07T22:08:27.270Z,9.95
2023-04-07T22:10:55.536Z,9.92
2023-04-07T22:13:23.317Z,9.90
2023-04-07T22:15:52.776Z,9.87
2023-04-07T22:18:22.034Z,9.83
2023-04-07T22:20:49.936Z,9.84
2023-04-07T22:23:17.867Z,9.86
2023-04-07T22:25:45.625Z,9.81
2023-04-07T22:28:13.306Z,9.84
2023-04-07T22:30:40.975Z,9.77
2023-04-07T22:33:10.650Z,9.74
2023-04-07T22:35:39.124Z,9.73
2023-04-07T22:38:07.034Z,9.73
2023-04-07T22:40:35.036Z,9.73
2023-04-07T22:43:02.929Z,9.71
2023-04-07T22:45:31.531Z,9.66
2023-04-07T22:47:59.319Z,9.64
2023-04-07T22:50:28.500Z,9.65
2023-04-07T22:52:56.323Z,9.60
2023-04-07T22:55:24.116Z,9.61
2023-04-07T22:57:51.820Z,9.56
2023-04-07T23:00:19.521Z,9.47
2023-04-07T23:02:47.667Z,9.42
2023-04-07T23:05:15.905Z,9.34
2023-04-07T23:07:45.293Z,9.31
2023-04-07T23:10:13.369Z,9.31
2023-04-07T23:12:41.263Z,9.28
2023-04-07T23:15:10.282Z,9.25
2023-04-07T23:17:38.146Z,9.24
2023-04-07T23:20:07.002Z,9.23
2023-04-07T23:22:34.895Z,9.15
2023-04-07T23:25:04.856Z,9.12
2023-04-07T23:27:32.995Z,9.11
2023-04-07T23:30:00.715Z,9.16
2023-04-07T23:32:28.751Z,9.22
2023-04-07T23:34:56.536Z,9.26
2023-04-07T23:37:24.310Z,9.27
2023-04-07T23:39:52.844Z,9.22
2023-04-07T23:42:21.992Z,9.24
2023-04-07T23:44:49.718Z,9.18
2023-04-07T23:47:17.465Z,9.14
2023-04-07T23:49:45.281Z,9.18
2023-04-07T23:52:13.001Z,9.24
2023-04-07T23:54:40.676Z,9.27
2023-04-07T23:57:08.442Z,9.32
2023-04-07T23:59:37.773Z,9.31
